Time;durP1;ratioP1;P1;durP2;ratioP2;P2;SDS_P1;SDS_P2;PMS_P1;PMS_P2;Temp;Humidity;BMP_temperature;BMP_pressure;BME280_temperature;BME280_humidity;BME280_pressure;Samples;Min_cycle;Max_cycle;Signal;HPM_P1;HPM_P2
2022/06/14 00:02:59;;;;;;;3.30;1.70;;;14.00;64.60;;;;;;5065990;28;20557;-70
2022/06/14 00:05:26;;;;;;;4.20;2.30;;;14.00;63.50;;;;;;5067771;28;20439;-70
2022/06/14 00:07:52;;;;;;;4.30;1.70;;;14.00;62.10;;;;;;5076352;28;20499;-70
2022/06/14 00:10:19;;;;;;;3.90;1.90;;;14.00;63.80;;;;;;5080227;28;20429;-70
2022/06/14 00:12:46;;;;;;;5.47;2.00;;;13.90;63.30;;;;;;5076473;28;20797;-70
2022/06/14 00:15:13;;;;;;;3.13;1.95;;;13.90;62.50;;;;;;5068512;28;20827;-71
2022/06/14 00:17:40;;;;;;;3.70;2.00;;;13.90;63.20;;;;;;5073898;28;20430;-71
2022/06/14 00:20:09;;;;;;;3.00;1.60;;;13.80;63.70;;;;;;5062949;28;20439;-70
2022/06/14 00:22:37;;;;;;;4.65;1.80;;;13.80;62.90;;;;;;5071728;28;20425;-71
2022/06/14 00:25:05;;;;;;;3.10;1.90;;;13.80;64.50;;;;;;5076195;28;20433;-70
2022/06/14 00:27:31;;;;;;;3.33;2.10;;;13.80;64.80;;;;;;5058304;28;20923;-69
2022/06/14 00:29:58;;;;;;;4.45;1.90;;;13.70;64.70;;;;;;5061603;28;20819;-70
2022/06/14 00:32:25;;;;;;;3.93;2.20;;;13.70;63.70;;;;;;5064374;28;20431;-70
2022/06/14 00:34:52;;;;;;;4.93;2.05;;;13.60;64.20;;;;;;5063099;28;20433;-70
2022/06/14 00:37:20;;;;;;;3.17;2.00;;;13.60;64.80;;;;;;5061995;28;20513;-71
2022/06/14 00:39:48;;;;;;;4.60;2.10;;;13.60;64.30;;;;;;5059119;28;20864;-70
2022/06/14 00:42:19;;;;;;;4.68;2.00;;;13.60;65.70;;;;;;5067617;28;20785;-70
2022/06/14 00:45:02;;;;;;;4.20;2.20;;;13.60;65.00;;;;;;5053065;28;20842;-70
2022/06/14 00:47:29;;;;;;;6.93;2.20;;;13.50;63.90;;;;;;5050798;28;20436;-70
2022/06/14 00:50:00;;;;;;;4.67;2.10;;;13.50;65.40;;;;;;5061104;28;20933;-71
2022/06/14 00:52:33;;;;;;;6.30;2.70;;;13.40;64.30;;;;;;5057484;28;20545;-70
2022/06/14 00:55:05;;;;;;;3.92;2.00;;;13.40;64.40;;;;;;5064554;28;20415;-70
2022/06/14 00:57:37;;;;;;;5.57;2.20;;;13.30;65.90;;;;;;5056600;28;20432;-69
2022/06/14 01:00:08;;;;;;;4.55;2.20;;;13.30;65.00;;;;;;5059686;28;20431;-70
2022/06/14 01:02:41;;;;;;;3.20;2.00;;;13.30;66.30;;;;;;5054740;28;20425;-69
2022/06/14 01:05:12;;;;;;;4.95;2.17;;;13.30;65.90;;;;;;5057052;28;20421;-69
2022/06/14 01:07:46;;;;;;;4.63;2.10;;;13.20;67.10;;;;;;5046438;28;20433;-70
2022/06/14 01:10:17;;;;;;;5.18;2.20;;;13.20;65.30;;;;;;5049729;28;20874;-69
2022/06/14 01:12:47;;;;;;;4.13;2.10;;;13.10;65.50;;;;;;5058300;28;20902;-70
2022/06/14 01:15:18;;;;;;;5.53;2.10;;;13.10;67.10;;;;;;5057379;28;20767;-70
2022/06/14 01:17:48;;;;;;;5.10;2.13;;;13.00;66.10;;;;;;5059167;28;20442;-70
2022/06/14 01:20:18;;;;;;;4.07;2.30;;;13.00;66.70;;;;;;5056969;28;20423;-70
2022/06/14 01:22:47;;;;;;;4.73;2.20;;;13.00;66.00;;;;;;5058170;28;20709;-71
2022/06/14 01:25:14;;;;;;;3.50;1.90;;;12.90;67.40;;;;;;5064810;28;20885;-69
2022/06/14 01:27:42;;;;;;;4.00;2.38;;;13.00;68.00;;;;;;5059436;28;20809;-71
2022/06/14 01:30:14;;;;;;;3.80;1.97;;;12.90;68.90;;;;;;5061884;28;20575;-71
2022/06/14 01:32:46;;;;;;;4.07;2.00;;;12.90;66.80;;;;;;5061973;28;20426;-71
2022/06/14 01:35:18;;;;;;;4.07;2.22;;;12.90;66.60;;;;;;5057879;28;21165;-70
2022/06/14 01:37:49;;;;;;;5.18;2.17;;;12.90;66.50;;;;;;5054268;28;20427;-71
2022/06/14 01:40:16;;;;;;;4.55;2.33;;;12.90;66.10;;;;;;5059062;28;20789;-69
2022/06/14 01:42:56;;;;;;;5.50;2.60;;;12.80;66.00;;;;;;5055246;28;20436;-69
2022/06/14 01:45:32;;;;;;;5.07;2.40;;;12.80;66.40;;;;;;5052847;28;20906;-69
2022/06/14 01:48:07;;;;;;;6.25;2.50;;;12.70;66.70;;;;;;5058454;28;20432;-69
2022/06/14 01:53:42;;;;;;;4.30;2.45;;;12.70;66.10;;;;;;5063674;28;20391;-71
2022/06/14 01:56:14;;;;;;;4.28;2.00;;;12.70;66.90;;;;;;5068884;28;20454;-70
2022/06/14 01:58:49;;;;;;;5.40;2.20;;;12.70;66.90;;;;;;5059149;28;20529;-70
2022/06/14 02:01:22;;;;;;;4.80;2.25;;;12.70;67.70;;;;;;5058826;28;20431;-70
2022/06/14 02:06:44;;;;;;;2.90;2.00;;;12.70;69.70;;;;;;5051957;28;20436;-70
2022/06/14 02:09:17;;;;;;;4.13;2.30;;;12.70;67.70;;;;;;5056711;28;20451;-70
2022/06/14 02:11:44;;;;;;;3.63;2.10;;;12.70;69.60;;;;;;5063659;28;20929;-70
2022/06/14 02:14:20;;;;;;;4.60;2.40;;;12.70;69.10;;;;;;5063244;28;20436;-70
2022/06/14 02:16:54;;;;;;;5.05;2.53;;;12.70;66.80;;;;;;5058355;28;20544;-70
2022/06/14 02:19:30;;;;;;;3.92;2.20;;;12.60;66.70;;;;;;5066798;28;20435;-70
2022/06/14 02:22:03;;;;;;;3.92;2.25;;;12.70;66.70;;;;;;5058944;28;21016;-70
2022/06/14 02:24:37;;;;;;;5.00;2.50;;;12.70;66.90;;;;;;5071520;28;20439;-70
2022/06/14 02:27:12;;;;;;;3.72;2.30;;;12.60;66.20;;;;;;5052845;28;20511;-68
2022/06/14 02:29:42;;;;;;;4.83;2.47;;;12.60;66.30;;;;;;5065375;28;20920;-69
2022/06/14 02:32:17;;;;;;;5.35;2.20;;;12.60;67.20;;;;;;5063208;28;20459;-70
2022/06/14 02:34:48;;;;;;;4.13;2.55;;;12.60;69.10;;;;;;5066428;28;20435;-69
2022/06/14 02:37:18;;;;;;;3.35;2.17;;;12.50;67.20;;;;;;5062558;28;20431;-69
2022/06/14 02:39:51;;;;;;;6.93;2.67;;;12.50;66.40;;;;;;5066314;28;20435;-71
2022/06/14 02:42:21;;;;;;;5.00;2.05;;;12.50;67.50;;;;;;5066781;28;20921;-69
2022/06/14 02:44:58;;;;;;;6.50;2.00;;;12.50;67.30;;;;;;5062918;28;20480;-69
2022/06/14 02:47:29;;;;;;;5.32;2.20;;;12.50;67.40;;;;;;5062905;28;20806;-70
2022/06/14 02:49:59;;;;;;;4.07;2.50;;;12.50;68.40;;;;;;5056148;28;20934;-70
2022/06/14 02:52:33;;;;;;;5.60;2.42;;;12.50;68.80;;;;;;5057164;28;20431;-69
2022/06/14 02:55:07;;;;;;;5.25;2.30;;;12.50;67.90;;;;;;5064253;28;20444;-69
2022/06/14 02:57:41;;;;;;;4.47;2.50;;;12.40;68.00;;;;;;5068190;28;20917;-69
2022/06/14 03:00:13;;;;;;;3.40;2.17;;;12.40;67.80;;;;;;5065814;28;20489;-70
2022/06/14 03:02:45;;;;;;;4.03;2.30;;;12.30;69.00;;;;;;5056557;28;20913;-69
2022/06/14 03:05:19;;;;;;;4.10;2.60;;;12.30;69.00;;;;;;5058339;28;20427;-70
2022/06/14 03:07:54;;;;;;;6.35;2.53;;;12.30;70.60;;;;;;5055420;28;20958;-70
2022/06/14 03:10:22;;;;;;;4.30;2.25;;;12.30;70.50;;;;;;5062021;28;20416;-70
2022/06/14 03:13:02;;;;;;;4.17;2.20;;;12.30;70.40;;;;;;5060093;28;20538;-69
2022/06/14 03:15:36;;;;;;;7.90;2.90;;;12.30;68.10;;;;;;5067527;28;20897;-70
2022/06/14 03:18:13;;;;;;;4.40;2.50;;;12.20;68.10;;;;;;5057635;28;20428;-70
2022/06/14 03:20:46;;;;;;;4.10;2.50;;;12.20;68.10;;;;;;5067390;28;20416;-69
2022/06/14 03:23:31;;;;;;;4.65;2.60;;;12.20;69.20;;;;;;5061578;28;20914;-70
2022/06/14 03:26:06;;;;;;;7.05;3.03;;;12.20;71.60;;;;;;5064821;28;20440;-71
2022/06/14 03:28:40;;;;;;;5.40;2.60;;;12.20;70.90;;;;;;5051967;28;20729;-70
2022/06/14 03:31:12;;;;;;;6.18;3.00;;;12.10;70.40;;;;;;5066421;28;20925;-70
2022/06/14 03:33:46;;;;;;;4.70;2.60;;;12.10;71.50;;;;;;5055103;28;20429;-70
2022/06/14 03:36:14;;;;;;;5.30;2.80;;;12.10;72.00;;;;;;5056474;28;20478;-70
2022/06/14 03:38:45;;;;;;;6.63;3.47;;;12.10;70.30;;;;;;5055119;28;21716;-70
2022/06/14 03:41:18;;;;;;;5.70;2.78;;;12.00;69.70;;;;;;5052487;28;20532;-70
2022/06/14 03:43:45;;;;;;;4.50;2.50;;;12.00;69.80;;;;;;5064297;28;20909;-69
2022/06/14 03:46:15;;;;;;;3.83;2.55;;;11.90;71.30;;;;;;5059604;28;20428;-71
2022/06/14 03:48:47;;;;;;;5.20;3.20;;;11.90;70.50;;;;;;5063256;28;20427;-71
2022/06/14 03:51:19;;;;;;;5.10;3.00;;;11.90;70.60;;;;;;5053629;28;20435;-71
2022/06/14 03:53:59;;;;;;;5.40;2.80;;;11.80;70.90;;;;;;5060141;28;20797;-69
2022/06/14 03:56:44;;;;;;;6.40;3.07;;;11.80;71.50;;;;;;5066431;28;20543;-69
2022/06/14 03:59:25;;;;;;;6.00;3.28;;;11.80;72.50;;;;;;5059145;28;20419;-70
2022/06/14 04:01:56;;;;;;;4.90;2.90;;;11.80;74.30;;;;;;5046875;28;20903;-69
2022/06/14 04:04:41;;;;;;;6.43;2.90;;;11.90;74.40;;;;;;5060970;28;20435;-70
2022/06/14 04:07:21;;;;;;;6.00;3.00;;;11.90;74.80;;;;;;5063649;28;20971;-68
2022/06/14 04:09:53;;;;;;;6.70;3.10;;;11.90;74.30;;;;;;5059858;28;20423;-70
2022/06/14 04:12:29;;;;;;;5.67;3.20;;;12.00;73.90;;;;;;5064823;23;20873;-71
2022/06/14 04:15:11;;;;;;;4.45;2.92;;;12.00;71.40;;;;;;5049927;28;20433;-70
2022/06/14 04:17:47;;;;;;;4.50;3.40;;;11.90;71.00;;;;;;5082520;28;20511;-70
2022/06/14 04:20:20;;;;;;;6.72;3.70;;;11.90;71.70;;;;;;5066531;28;20441;-70
2022/06/14 04:23:02;;;;;;;7.90;3.80;;;11.90;72.40;;;;;;5079010;28;20421;-71
2022/06/14 04:25:35;;;;;;;4.38;3.25;;;11.90;71.50;;;;;;5086050;28;20575;-71
2022/06/14 04:28:14;;;;;;;5.55;3.38;;;11.90;71.40;;;;;;5066823;28;20433;-70
2022/06/14 04:30:46;;;;;;;6.32;3.33;;;11.90;73.00;;;;;;5063401;28;21205;-71
2022/06/14 04:33:18;;;;;;;6.95;3.70;;;11.90;74.40;;;;;;5064830;28;20428;-70
2022/06/14 04:35:50;;;;;;;5.32;3.53;;;12.00;74.40;;;;;;5063823;28;20452;-71
2022/06/14 04:38:22;;;;;;;5.65;3.58;;;12.00;72.70;;;;;;5073680;28;20430;-72
2022/06/14 04:40:53;;;;;;;7.63;3.88;;;12.00;74.20;;;;;;5069932;28;20432;-70
2022/06/14 04:43:26;;;;;;;5.72;3.95;;;12.00;71.90;;;;;;5069536;28;20437;-71
2022/06/14 04:45:56;;;;;;;6.87;3.90;;;12.10;71.80;;;;;;5075669;28;20454;-71
2022/06/14 04:48:30;;;;;;;6.67;3.33;;;12.10;73.40;;;;;;5068098;28;21308;-71
2022/06/14 04:51:02;;;;;;;5.75;3.80;;;12.10;74.00;;;;;;5062835;28;20808;-71
2022/06/14 04:53:36;;;;;;;5.78;3.50;;;12.10;73.60;;;;;;5063512;28;21233;-71
2022/06/14 04:56:09;;;;;;;7.00;3.70;;;12.20;73.50;;;;;;5057879;28;20969;-71
2022/06/14 04:58:43;;;;;;;6.60;3.88;;;12.20;74.50;;;;;;5064321;28;20431;-71
2022/06/14 05:01:16;;;;;;;6.47;3.80;;;12.30;75.50;;;;;;5054586;28;20929;-71
2022/06/14 05:03:49;;;;;;;9.25;4.90;;;12.40;73.90;;;;;;5066641;28;20425;-71
2022/06/14 05:06:22;;;;;;;10.18;4.90;;;12.50;74.20;;;;;;5074135;28;20551;-71
2022/06/14 05:08:56;;;;;;;6.88;4.10;;;12.50;75.20;;;;;;5077279;28;20537;-71
2022/06/14 05:11:26;;;;;;;10.98;5.50;;;12.60;75.70;;;;;;5064236;28;20427;-70
2022/06/14 05:14:00;;;;;;;8.57;5.70;;;12.60;75.60;;;;;;5070445;28;20456;-70
2022/06/14 05:16:32;;;;;;;10.95;5.82;;;12.70;75.60;;;;;;5061242;28;21176;-70
2022/06/14 05:19:08;;;;;;;8.18;4.22;;;12.70;76.00;;;;;;5090992;28;20565;-71
2022/06/14 05:21:42;;;;;;;8.98;4.35;;;12.80;74.90;;;;;;5072882;28;20441;-70
2022/06/14 05:24:09;;;;;;;8.10;4.30;;;12.80;75.50;;;;;;5073622;28;20531;-70
2022/06/14 05:27:00;;;;;;;5.60;3.75;;;12.80;73.90;;;;;;5080358;28;20945;-71
2022/06/14 05:29:37;;;;;;;5.95;3.70;;;12.80;72.40;;;;;;5070259;28;20856;-71
2022/06/14 05:32:10;;;;;;;7.20;3.88;;;12.80;72.50;;;;;;5068005;28;20435;-72
2022/06/14 05:34:48;;;;;;;6.32;4.25;;;12.70;73.20;;;;;;5072665;28;20439;-71
2022/06/14 05:37:23;;;;;;;8.90;4.40;;;12.60;71.20;;;;;;5070837;28;20435;-71
2022/06/14 05:39:56;;;;;;;6.45;4.35;;;12.50;71.60;;;;;;5072377;28;20429;-71
2022/06/14 05:42:30;;;;;;;7.55;4.40;;;12.50;71.90;;;;;;5084781;28;20603;-71
2022/06/14 05:45:02;;;;;;;5.30;4.10;;;12.50;73.10;;;;;;5082249;28;20486;-71
2022/06/14 05:47:36;;;;;;;7.10;4.40;;;12.60;72.60;;;;;;5086591;28;20776;-71
2022/06/14 05:50:07;;;;;;;6.80;4.40;;;12.60;72.10;;;;;;5072687;28;20461;-71
2022/06/14 05:52:38;;;;;;;7.57;4.60;;;12.70;73.40;;;;;;5073908;28;20916;-71
2022/06/14 05:55:12;;;;;;;6.72;4.38;;;12.80;73.20;;;;;;5067393;28;20790;-70
2022/06/14 05:57:45;;;;;;;7.25;4.55;;;12.90;73.10;;;;;;5081512;28;20596;-70
2022/06/14 06:00:18;;;;;;;5.13;4.40;;;12.90;72.30;;;;;;5076167;28;20521;-70
2022/06/14 06:02:52;;;;;;;8.00;4.30;;;13.00;71.20;;;;;;5075129;28;20438;-71
2022/06/14 06:05:24;;;;;;;8.13;4.68;;;13.00;71.00;;;;;;5071394;28;20514;-70
2022/06/14 06:07:55;;;;;;;6.93;4.00;;;13.10;71.60;;;;;;5079958;28;20441;-70
2022/06/14 06:10:26;;;;;;;7.43;4.65;;;13.20;70.20;;;;;;5083786;28;20452;-70
2022/06/14 06:12:58;;;;;;;6.90;4.30;;;13.20;71.00;;;;;;5074714;28;20530;-69
2022/06/14 06:15:29;;;;;;;6.75;4.18;;;13.20;72.10;;;;;;5072275;28;20441;-71
2022/06/14 06:18:01;;;;;;;5.97;5.00;;;13.30;70.90;;;;;;5070140;28;20450;-71
2022/06/14 06:20:33;;;;;;;7.05;4.80;;;13.40;69.80;;;;;;5073159;28;20426;-71
2022/06/14 06:23:10;;;;;;;6.75;5.20;;;13.50;69.60;;;;;;5071189;28;20432;-71
2022/06/14 06:25:41;;;;;;;10.75;5.20;;;13.50;69.50;;;;;;5062977;28;20843;-71
2022/06/14 06:28:13;;;;;;;7.45;4.70;;;13.60;67.50;;;;;;5067870;28;20493;-70
2022/06/14 06:30:46;;;;;;;8.05;5.07;;;13.70;67.60;;;;;;5072282;28;20438;-71
2022/06/14 06:33:16;;;;;;;6.28;4.70;;;13.80;66.70;;;;;;5070224;28;21278;-70
2022/06/14 06:35:50;;;;;;;6.65;5.10;;;13.90;67.10;;;;;;5071984;28;20894;-70
2022/06/14 06:38:29;;;;;;;6.47;5.10;;;13.90;65.80;;;;;;5061703;28;20458;-70
2022/06/14 06:43:49;;;;;;;7.65;4.72;;;14.00;66.80;;;;;;5076155;28;20496;-71
2022/06/14 06:46:18;;;;;;;9.55;5.40;;;14.10;65.70;;;;;;5072628;28;20503;-71
2022/06/14 06:48:52;;;;;;;6.68;5.00;;;14.20;65.20;;;;;;5074556;28;20426;-71
2022/06/14 06:51:23;;;;;;;7.70;5.40;;;14.30;64.20;;;;;;5063194;28;20443;-71
2022/06/14 06:53:56;;;;;;;6.33;5.00;;;14.40;64.60;;;;;;5077369;28;20418;-71
2022/06/14 06:56:28;;;;;;;8.40;4.63;;;14.50;63.30;;;;;;5072900;28;20478;-71
2022/06/14 06:58:58;;;;;;;10.40;4.47;;;14.60;63.50;;;;;;5076379;28;20898;-71
2022/06/14 07:01:32;;;;;;;10.82;5.00;;;14.80;63.50;;;;;;5079681;28;20530;-71
2022/06/14 07:04:04;;;;;;;8.00;5.00;;;15.10;60.80;;;;;;5086255;28;20445;-71
2022/06/14 07:06:36;;;;;;;8.53;4.77;;;15.20;60.40;;;;;;5076880;28;20432;-71
2022/06/14 07:09:07;;;;;;;10.10;5.00;;;15.30;60.90;;;;;;5070480;28;20446;-71
2022/06/14 07:11:38;;;;;;;8.35;4.50;;;15.40;61.50;;;;;;5068041;28;20526;-71
2022/06/14 07:14:12;;;;;;;7.70;4.20;;;15.70;61.20;;;;;;5067897;28;20434;-71
2022/06/14 07:16:45;;;;;;;8.48;4.47;;;15.90;60.20;;;;;;5067090;28;20437;-71
2022/06/14 07:19:20;;;;;;;7.80;4.28;;;16.20;59.20;;;;;;5070496;28;20906;-71
2022/06/14 07:21:53;;;;;;;7.75;4.30;;;16.50;57.20;;;;;;5081806;28;20499;-71
2022/06/14 07:24:25;;;;;;;6.93;3.70;;;16.60;56.70;;;;;;5073897;28;20509;-71
2022/06/14 07:26:56;;;;;;;6.77;4.40;;;16.70;56.30;;;;;;5076489;28;20467;-71
2022/06/14 07:29:28;;;;;;;5.55;3.83;;;16.80;56.60;;;;;;5067077;28;20440;-71
2022/06/14 07:32:00;;;;;;;7.20;4.38;;;16.90;55.90;;;;;;5073383;28;20512;-71
2022/06/14 07:34:28;;;;;;;7.50;4.00;;;17.00;55.40;;;;;;5068832;28;20430;-71
2022/06/14 07:37:02;;;;;;;6.20;3.95;;;17.20;54.70;;;;;;5081594;28;20908;-71
2022/06/14 07:39:39;;;;;;;6.82;3.92;;;17.40;54.00;;;;;;5077945;28;20439;-71
2022/06/14 07:42:13;;;;;;;8.48;3.88;;;17.60;52.00;;;;;;5076834;28;20601;-71
2022/06/14 07:44:48;;;;;;;8.23;4.50;;;17.80;52.00;;;;;;5076386;28;20823;-70
2022/06/14 07:47:22;;;;;;;9.40;4.53;;;18.00;52.10;;;;;;5079395;28;21035;-72
2022/06/14 07:49:55;;;;;;;16.95;5.30;;;18.00;48.60;;;;;;5075624;28;20456;-70
2022/06/14 07:52:29;;;;;;;5.75;3.00;;;18.20;49.10;;;;;;5070062;28;20443;-72
2022/06/14 07:55:04;;;;;;;6.30;3.40;;;18.40;47.60;;;;;;5075653;28;20434;-71
2022/06/14 07:57:35;;;;;;;8.48;4.25;;;18.50;48.30;;;;;;5074854;28;20427;-71
2022/06/14 08:03:10;;;;;;;10.02;4.20;;;18.60;48.60;;;;;;5025313;28;20417;-72
2022/06/14 08:05:41;;;;;;;9.93;4.30;;;18.90;48.20;;;;;;5072215;28;20943;-72
2022/06/14 08:08:14;;;;;;;11.25;4.82;;;19.20;47.30;;;;;;5079480;28;20430;-69
2022/06/14 08:10:44;;;;;;;37.67;7.60;;;19.40;46.30;;;;;;5069400;28;20727;-70
2022/06/14 08:13:17;;;;;;;17.33;5.15;;;19.60;46.70;;;;;;5066654;28;20509;-70
2022/06/14 08:15:48;;;;;;;8.98;4.40;;;19.90;46.30;;;;;;5072245;28;20417;-70
2022/06/14 08:18:21;;;;;;;11.57;4.00;;;20.10;45.50;;;;;;5075528;28;20542;-72
2022/06/14 08:20:51;;;;;;;8.43;3.50;;;20.20;45.20;;;;;;5070272;28;20430;-70
2022/06/14 08:23:25;;;;;;;16.95;5.45;;;20.40;44.90;;;;;;5062507;28;20433;-70
2022/06/14 08:25:56;;;;;;;11.05;3.35;;;20.70;44.20;;;;;;5077191;28;20444;-72
2022/06/14 08:28:28;;;;;;;5.25;3.45;;;21.00;44.10;;;;;;5082160;28;20425;-72
2022/06/14 08:31:02;;;;;;;7.88;4.30;;;21.20;41.50;;;;;;5073318;28;20432;-72
2022/06/14 08:33:35;;;;;;;6.68;3.58;;;21.10;41.60;;;;;;5065684;28;20429;-72
2022/06/14 08:36:07;;;;;;;5.05;3.40;;;21.00;42.80;;;;;;5066675;28;20430;-72
2022/06/14 08:38:41;;;;;;;8.90;3.70;;;21.10;42.50;;;;;;5074816;28;20424;-69
2022/06/14 08:41:22;;;;;;;8.07;3.88;;;21.30;43.80;;;;;;5071697;28;20430;-63
2022/06/14 08:43:55;;;;;;;5.60;2.80;;;21.50;42.40;;;;;;5076284;28;21006;-64
2022/06/14 08:46:31;;;;;;;6.20;3.20;;;21.70;42.40;;;;;;5077451;28;20425;-63
2022/06/14 08:49:11;;;;;;;5.47;3.65;;;21.90;40.80;;;;;;5068425;28;20698;-64
2022/06/14 08:52:07;;;;;;;3.88;3.28;;;22.10;40.10;;;;;;5065727;28;20447;-71
2022/06/14 08:55:06;;;;;;;5.78;3.40;;;22.10;39.60;;;;;;5066936;28;20432;-70
2022/06/14 08:57:57;;;;;;;7.55;3.60;;;22.10;39.80;;;;;;5029367;28;20483;-71
2022/06/14 09:00:47;;;;;;;4.47;2.63;;;22.20;38.60;;;;;;5065548;28;20530;-71
2022/06/14 09:03:55;;;;;;;5.90;3.13;;;22.30;40.80;;;;;;5065183;28;20429;-70
2022/06/14 09:07:02;;;;;;;6.45;3.03;;;22.60;39.50;;;;;;5058581;28;20417;-70
2022/06/14 09:09:59;;;;;;;8.60;3.30;;;22.80;38.70;;;;;;5052482;28;20430;-71
2022/06/14 09:12:47;;;;;;;5.65;3.33;;;22.90;38.00;;;;;;5063411;28;20523;-71
2022/06/14 09:15:46;;;;;;;5.72;3.50;;;23.10;38.40;;;;;;5068486;28;20444;-71
2022/06/14 09:18:36;;;;;;;5.65;3.45;;;23.20;37.90;;;;;;5061433;28;20478;-71
2022/06/14 09:21:16;;;;;;;5.45;3.40;;;23.40;37.10;;;;;;5072809;28;20916;-71
2022/06/14 09:24:01;;;;;;;5.65;3.30;;;23.60;37.40;;;;;;5068186;28;20493;-71
2022/06/14 09:26:33;;;;;;;7.17;3.50;;;23.70;35.70;;;;;;5072452;28;20431;-71
2022/06/14 09:29:33;;;;;;;4.55;2.90;;;23.60;36.40;;;;;;5075399;28;20757;-71
2022/06/14 09:32:26;;;;;;;5.72;3.45;;;23.70;36.50;;;;;;5070960;28;20477;-72
2022/06/14 09:35:08;;;;;;;5.25;3.20;;;23.80;34.70;;;;;;5025853;28;20448;-71
2022/06/14 09:37:58;;;;;;;5.40;2.95;;;23.80;36.20;;;;;;5075622;28;20418;-71
2022/06/14 09:40:36;;;;;;;4.30;2.50;;;23.90;36.00;;;;;;5080887;28;20457;-71
2022/06/14 09:43:49;;;;;;;5.07;3.05;;;24.10;36.70;;;;;;5068097;28;20903;-71
2022/06/14 09:46:43;;;;;;;6.35;3.45;;;24.30;36.30;;;;;;5066958;28;21017;-71
2022/06/14 09:49:46;;;;;;;7.30;3.40;;;24.60;34.50;;;;;;5071628;28;20422;-71
2022/06/14 09:52:41;;;;;;;4.53;2.93;;;24.80;33.70;;;;;;5064864;28;20424;-71
2022/06/14 09:55:34;;;;;;;5.38;3.10;;;24.80;33.90;;;;;;5080733;28;20512;-71
2022/06/14 09:58:25;;;;;;;5.13;3.00;;;25.00;34.20;;;;;;5065076;28;20528;-70
2022/06/14 10:01:03;;;;;;;4.95;2.50;;;25.10;33.40;;;;;;5072315;28;20429;-70
2022/06/14 10:04:01;;;;;;;5.18;2.67;;;25.10;34.10;;;;;;5078315;28;20910;-70
2022/06/14 10:07:09;;;;;;;3.08;2.50;;;25.20;33.70;;;;;;5074375;28;20443;-71
2022/06/14 10:09:51;;;;;;;4.13;2.88;;;25.40;33.70;;;;;;5044337;28;20537;-71
2022/06/14 10:12:37;;;;;;;12.77;3.25;;;25.50;33.00;;;;;;5081504;22;20954;-72
2022/06/14 10:15:13;;;;;;;6.10;2.88;;;25.60;32.80;;;;;;5057431;28;20485;-72
2022/06/14 10:18:09;;;;;;;6.43;2.55;;;25.70;32.10;;;;;;5050602;28;20462;-72
2022/06/14 10:20:56;;;;;;;13.93;3.63;;;25.60;33.00;;;;;;5062920;28;20435;-72
2022/06/14 10:23:44;;;;;;;6.27;2.50;;;25.60;32.80;;;;;;5046281;28;20425;-72
2022/06/14 10:29:26;;;;;;;5.45;2.70;;;25.90;33.00;;;;;;5043183;28;20429;-72
2022/06/14 10:32:18;;;;;;;6.93;3.00;;;26.00;31.60;;;;;;5045220;28;20536;-73
2022/06/14 10:34:49;;;;;;;6.80;2.60;;;26.00;31.90;;;;;;5055715;28;20414;-72
2022/06/14 10:37:36;;;;;;;3.55;2.38;;;26.10;31.60;;;;;;5054193;28;20486;-72
2022/06/14 10:40:36;;;;;;;4.10;2.67;;;26.20;31.90;;;;;;5069171;28;20428;-73
2022/06/14 10:43:09;;;;;;;6.85;2.67;;;26.40;31.40;;;;;;5071983;28;20496;-72
2022/06/14 10:45:41;;;;;;;4.72;2.30;;;26.30;30.30;;;;;;5067634;28;20432;-73
2022/06/14 10:48:25;;;;;;;4.40;2.17;;;26.20;31.70;;;;;;5052240;28;20445;-72
2022/06/14 10:51:05;;;;;;;4.90;2.78;;;26.10;32.10;;;;;;5041846;28;20709;-74
2022/06/14 10:53:42;;;;;;;5.20;2.80;;;26.10;30.50;;;;;;5055156;28;20420;-73
2022/06/14 10:56:36;;;;;;;4.28;2.42;;;26.00;29.70;;;;;;5051518;28;20417;-73
2022/06/14 10:59:37;;;;;;;4.50;2.50;;;26.00;31.10;;;;;;5038599;28;20432;-72
2022/06/14 11:02:15;;;;;;;5.50;2.22;;;26.00;31.00;;;;;;5045965;28;20873;-72
2022/06/14 11:04:49;;;;;;;5.18;2.50;;;26.00;30.30;;;;;;5057377;28;20428;-73
2022/06/14 11:07:42;;;;;;;3.60;2.10;;;26.10;30.20;;;;;;5048370;28;20448;-73
2022/06/14 11:10:37;;;;;;;4.73;2.27;;;26.20;30.90;;;;;;5049062;28;20440;-73
2022/06/14 11:13:13;;;;;;;5.20;2.30;;;26.40;30.20;;;;;;5048704;28;20428;-73
2022/06/14 11:15:48;;;;;;;3.77;2.00;;;26.60;29.60;;;;;;5040876;28;20512;-72
2022/06/14 11:19:01;;;;;;;4.50;2.03;;;26.70;30.70;;;;;;5048593;28;20425;-72
2022/06/14 11:21:39;;;;;;;3.90;1.92;;;26.80;29.80;;;;;;5045304;28;20800;-73
2022/06/14 11:24:13;;;;;;;3.40;1.80;;;26.70;28.20;;;;;;5050164;28;20593;-72
2022/06/14 11:26:47;;;;;;;4.57;2.20;;;26.60;29.90;;;;;;5048024;28;20525;-73
2022/06/14 11:29:21;;;;;;;3.45;1.92;;;26.60;29.10;;;;;;5043806;28;20437;-69
2022/06/14 11:31:53;;;;;;;3.70;2.00;;;26.50;29.30;;;;;;5044214;28;20452;-69
2022/06/14 11:34:36;;;;;;;4.15;1.80;;;26.40;30.00;;;;;;5046814;28;20425;-71
2022/06/14 11:37:20;;;;;;;4.40;2.10;;;26.60;29.80;;;;;;5047716;28;20788;-71
2022/06/14 11:39:51;;;;;;;4.30;2.10;;;26.70;29.30;;;;;;5055952;28;20913;-72
2022/06/14 11:42:27;;;;;;;3.75;1.80;;;26.80;29.70;;;;;;5050661;28;20437;-70
2022/06/14 11:45:07;;;;;;;3.83;2.00;;;26.80;30.40;;;;;;5048905;28;20464;-70
2022/06/14 11:47:42;;;;;;;4.65;2.10;;;26.90;29.50;;;;;;5049655;28;20457;-72
2022/06/14 11:50:17;;;;;;;3.97;2.20;;;26.90;30.10;;;;;;5053175;28;20436;-72
2022/06/14 11:53:12;;;;;;;3.20;2.35;;;26.90;28.10;;;;;;5044642;28;20429;-72
2022/06/14 11:55:44;;;;;;;4.60;2.80;;;26.80;28.90;;;;;;5053663;28;20464;-71
2022/06/14 11:58:16;;;;;;;4.10;2.28;;;26.70;28.60;;;;;;5051691;28;20772;-70
2022/06/14 12:01:08;;;;;;;3.38;2.00;;;26.50;29.20;;;;;;5036001;28;20448;-69
2022/06/14 12:04:04;;;;;;;4.07;2.30;;;26.50;29.90;;;;;;5040907;28;20429;-69
2022/06/14 12:06:41;;;;;;;5.45;2.88;;;26.70;29.80;;;;;;5041989;28;20421;-69
2022/06/14 12:09:22;;;;;;;5.32;2.85;;;26.80;29.90;;;;;;5053054;28;20468;-69
2022/06/14 12:11:54;;;;;;;4.70;2.20;;;27.20;29.80;;;;;;5046716;28;20421;-70
2022/06/14 12:14:45;;;;;;;4.82;2.33;;;27.30;28.10;;;;;;5047726;28;20432;-71
2022/06/14 12:17:20;;;;;;;3.50;2.30;;;27.50;28.60;;;;;;5044988;28;20440;-71
2022/06/14 12:19:53;;;;;;;4.45;2.30;;;27.40;28.00;;;;;;5040131;28;20425;-69
2022/06/14 12:22:29;;;;;;;3.28;2.00;;;27.40;29.30;;;;;;5042137;28;20521;-70
2022/06/14 12:27:51;;;;;;;4.80;2.20;;;27.80;28.20;;;;;;5041661;28;20452;-71
2022/06/14 12:30:19;;;;;;;3.47;1.90;;;27.90;28.50;;;;;;5040841;28;20436;-71
2022/06/14 12:32:54;;;;;;;3.00;2.10;;;28.00;28.30;;;;;;5039709;28;20445;-72
2022/06/14 12:35:25;;;;;;;5.50;2.10;;;28.20;26.60;;;;;;5067990;28;20509;-71
2022/06/14 12:38:00;;;;;;;4.47;2.10;;;28.20;28.10;;;;;;5066091;28;20508;-69
2022/06/14 12:40:36;;;;;;;8.00;2.60;;;28.20;27.90;;;;;;5057552;28;20434;-72
2022/06/14 12:43:06;;;;;;;3.95;1.90;;;28.10;27.00;;;;;;5055056;28;20434;-72
2022/06/14 12:45:39;;;;;;;4.72;2.60;;;28.00;28.60;;;;;;5051166;28;20432;-71
2022/06/14 12:48:16;;;;;;;4.80;2.60;;;27.90;27.60;;;;;;5052752;28;20437;-71
2022/06/14 12:50:47;;;;;;;3.00;2.20;;;27.90;29.50;;;;;;5062001;28;20438;-68
2022/06/14 12:53:19;;;;;;;5.88;2.35;;;27.90;27.60;;;;;;5057158;28;20433;-69
2022/06/14 12:55:54;;;;;;;3.90;1.80;;;27.90;27.60;;;;;;5056544;28;20429;-70
2022/06/14 12:58:35;;;;;;;4.40;1.92;;;27.90;28.60;;;;;;5050860;28;20890;-69
2022/06/14 13:01:12;;;;;;;4.45;2.00;;;28.10;28.00;;;;;;5052045;28;20429;-71
2022/06/14 13:03:46;;;;;;;4.45;2.67;;;28.30;28.60;;;;;;5050432;28;20430;-71
2022/06/14 13:06:53;;;;;;;6.22;2.78;;;28.30;27.30;;;;;;5037782;28;20438;-70
2022/06/14 13:09:28;;;;;;;4.00;2.10;;;28.20;28.50;;;;;;5045635;28;20914;-69
2022/06/14 13:12:09;;;;;;;5.15;2.00;;;28.40;26.50;;;;;;5048465;28;20425;-67
2022/06/14 13:14:45;;;;;;;4.28;2.08;;;28.30;28.00;;;;;;5045917;28;20438;-71
2022/06/14 13:17:22;;;;;;;3.13;2.20;;;28.40;27.30;;;;;;5054218;28;20429;-71
2022/06/14 13:19:56;;;;;;;3.63;2.10;;;28.60;27.20;;;;;;5049886;28;21024;-70
2022/06/14 13:22:50;;;;;;;3.60;1.73;;;28.70;27.70;;;;;;5041965;28;20800;-70
2022/06/14 13:25:39;;;;;;;3.53;2.08;;;28.60;27.00;;;;;;5047093;28;20453;-70
2022/06/14 13:28:20;;;;;;;3.22;1.80;;;28.70;27.80;;;;;;5050066;28;20433;-70
2022/06/14 13:30:53;;;;;;;2.97;1.60;;;28.80;26.80;;;;;;5041959;28;20803;-70
2022/06/14 13:33:35;;;;;;;4.40;2.05;;;29.00;27.00;;;;;;5048183;28;20443;-70
2022/06/14 13:36:09;;;;;;;4.80;2.10;;;28.90;25.50;;;;;;5054435;28;20436;-70
2022/06/14 13:38:42;;;;;;;3.28;2.00;;;28.90;26.90;;;;;;5051375;28;20441;-71
2022/06/14 13:41:15;;;;;;;4.43;1.75;;;29.00;23.90;;;;;;5049367;28;20439;-70
2022/06/14 13:43:51;;;;;;;2.37;1.63;;;28.90;27.30;;;;;;5050058;28;20432;-70
2022/06/14 13:46:24;;;;;;;4.85;1.90;;;28.90;26.50;;;;;;5046554;28;20465;-70
2022/06/14 13:48:57;;;;;;;3.70;1.60;;;28.90;24.90;;;;;;5056504;28;20953;-71
2022/06/14 13:51:36;;;;;;;3.80;2.10;;;29.00;26.90;;;;;;5046489;28;20437;-69